Date,TemperatureHighF,TemperatureAvgF,TemperatureLowF,DewpointHighF,DewpointAvgF,DewpointLowF,HumidityHigh,HumidityAvg,HumidityLow,PressureMaxIn,PressureMinIn,WindSpeedMaxMPH,WindSpeedAvgMPH,GustSpeedMaxMPH,PrecipitationSumIn
2013-4-1,40.5,31.0,23.6,25.6,21.8,19.1,83,69,50,30.29,30.06,20,8,20,0.00
2013-4-2,42.9,32.2,22.3,26.9,22.6,19.6,91,69,46,30.37,30.28,19,4,19,0.00
2013-4-3,46.0,33.8,20.5,28.1,22.7,18.6,94,67,41,30.46,30.26,13,2,13,0.00
2013-4-4,59.0,44.2,28.8,42.9,32.5,23.2,82,64,41,30.26,30.02,17,5,17,0.00
2013-4-5,52.3,43.1,30.5,33.1,30.2,27.3,89,63,43,30.22,29.89,18,4,18,0.00
2013-4-6,62.0,50.7,42.3,51.9,40.5,29.5,88,69,56,29.90,29.50,24,8,24,0.01
2013-4-7,61.2,48.3,35.2,45.1,40.1,32.9,93,75,52,29.95,29.69,14,3,18,0.00
2013-4-8,72.8,58.5,47.9,57.8,51.2,44.2,99,79,48,29.84,29.61,14,3,14,0.48
2013-4-9,51.4,45.7,40.4,49.0,44.4,39.0,98,95,86,29.94,29.69,19,4,22,1.43
2013-4-10,40.2,37.7,35.3,39.4,36.5,34.3,97,95,93,30.05,29.73,22,4,22,0.46
2013-4-11,45.2,39.1,36.9,44.4,38.0,35.4,99,96,90,29.75,29.55,15,3,15,0.25
2013-4-12,38.4,36.0,33.9,36.5,32.9,29.9,98,89,79,29.90,29.55,21,8,21,0.00
2013-4-13,47.2,38.3,31.7,36.3,31.6,26.9,90,77,61,29.99,29.88,16,5,16,0.00
2013-4-14,63.2,47.5,37.0,57.5,44.4,33.6,97,89,75,29.91,29.42,25,5,25,0.82
2013-4-15,49.4,42.1,36.2,46.3,36.4,31.2,97,81,66,30.05,29.60,18,6,20,0.00
2013-4-16,45.4,35.3,31.7,34.6,31.3,29.0,91,85,67,30.24,30.03,11,3,14,0.00
2013-4-17,45.9,42.1,39.3,45.4,40.8,35.1,98,95,69,30.23,29.56,23,4,28,1.62
2013-4-18,45.6,39.8,34.5,44.9,38.7,31.9,98,96,90,29.72,29.43,18,6,20,0.25
2013-4-19,34.5,34.5,34.5,31.9,31.8,31.5,90,90,89,29.58,29.58,15,8,17,0.00
2013-4-20,47.2,38.0,27.5,30.5,25.7,19.6,91,65,33,30.32,30.03,5,3,12,0.00
2013-4-21,61.6,48.6,38.8,48.5,39.6,30.7,86,72,59,30.31,30.08,9,6,25,0.05
2013-4-22,63.9,55.3,41.9,50.9,48.3,40.4,96,78,56,30.18,29.88,32,5,32,0.12
2013-4-23,43.6,37.9,33.8,40.4,32.7,28.5,95,82,66,30.10,29.96,21,8,21,0.01
2013-4-24,53.4,41.2,28.9,40.4,31.4,26.1,90,71,39,30.14,29.99,30,7,30,0.01
2013-4-25,56.6,44.1,31.1,35.5,30.8,22.8,88,62,32,30.27,30.07,17,5,17,0.00
2013-4-26,70.3,56.8,43.1,52.0,44.4,34.0,88,64,47,30.18,30.09,26,8,26,0.00
2013-4-27,67.0,55.6,43.3,51.5,47.2,41.8,96,75,53,30.19,29.96,14,3,14,0.00
2013-4-28,74.8,59.1,40.5,52.8,47.8,39.1,97,70,41,29.97,29.72,16,3,16,0.00
2013-4-29,78.3,63.6,53.2,62.1,56.0,50.1,97,78,52,29.78,29.53,13,2,13,0.25
2013-4-30,83.4,71.9,58.0,63.1,57.9,44.6,96,63,43,29.84,29.51,31,7,31,0.23